createdAt,value
2023-07-19T00:01:11.018Z,73.80
2023-07-19T00:03:37.983Z,73.80
2023-07-19T00:06:04.928Z,74.30
2023-07-19T00:08:32.283Z,75.00
2023-07-19T00:10:59.329Z,75.20
2023-07-19T00:13:26.232Z,75.30
2023-07-19T00:15:53.129Z,74.70
2023-07-19T00:18:19.965Z,74.40
2023-07-19T00:20:46.899Z,74.30
2023-07-19T00:23:13.837Z,74.90
2023-07-19T00:25:40.716Z,74.40
2023-07-19T00:28:07.555Z,74.60
2023-07-19T00:30:34.545Z,75.20
2023-07-19T00:33:03.997Z,75.20
2023-07-19T00:35:33.590Z,75.00
2023-07-19T00:38:00.524Z,74.50
2023-07-19T00:40:27.556Z,74.90
2023-07-19T00:42:58.475Z,75.30
2023-07-19T00:45:26.505Z,74.80
2023-07-19T00:47:54.680Z,74.90
2023-07-19T00:50:22.444Z,74.80
2023-07-19T00:52:51.337Z,74.40
2023-07-19T00:55:18.619Z,74.30
2023-07-19T00:57:45.940Z,75.00
2023-07-19T01:00:12.968Z,74.90
2023-07-19T01:02:39.957Z,75.10
2023-07-19T01:05:07.031Z,74.30
2023-07-19T01:07:34.087Z,74.60
2023-07-19T01:10:00.962Z,75.10
2023-07-19T01:12:28.415Z,75.60
2023-07-19T01:14:55.218Z,75.30
2023-07-19T01:17:22.028Z,75.50
2023-07-19T01:19:50.888Z,75.00
2023-07-19T01:22:18.339Z,74.10
2023-07-19T01:24:45.146Z,74.80
2023-07-19T01:27:22.461Z,74.90
2023-07-19T01:29:50.794Z,74.90
2023-07-19T01:32:18.006Z,75.00
2023-07-19T01:34:44.878Z,74.70
2023-07-19T01:37:11.697Z,75.10
2023-07-19T01:39:40.728Z,75.30
2023-07-19T01:42:08.784Z,75.50
2023-07-19T01:44:35.831Z,75.60
2023-07-19T01:47:02.713Z,75.70
2023-07-19T01:49:29.634Z,75.60
2023-07-19T01:51:56.619Z,75.40
2023-07-19T01:54:23.513Z,75.30
2023-07-19T01:56:50.270Z,75.40
2023-07-19T01:59:18.948Z,75.10
2023-07-19T02:01:45.870Z,75.00
2023-07-19T02:04:12.887Z,75.80
2023-07-19T02:06:41.004Z,75.40
2023-07-19T02:09:07.941Z,75.40
2023-07-19T02:11:35.632Z,75.80
2023-07-19T02:14:02.665Z,75.60
2023-07-19T02:16:29.679Z,75.60
2023-07-19T02:18:56.792Z,75.90
2023-07-19T02:24:19.335Z,75.70
2023-07-19T02:26:49.041Z,75.00
2023-07-19T02:29:15.903Z,75.40
2023-07-19T02:31:43.740Z,75.40
2023-07-19T02:34:12.022Z,75.80
2023-07-19T02:36:38.801Z,75.30
2023-07-19T02:39:05.825Z,75.80
2023-07-19T02:41:32.919Z,76.70
2023-07-19T02:44:00.576Z,76.00
2023-07-19T02:46:27.584Z,76.20
2023-07-19T02:48:54.653Z,75.70
2023-07-19T02:51:21.933Z,75.40
2023-07-19T02:53:49.974Z,75.50
2023-07-19T02:56:16.935Z,75.60
2023-07-19T02:58:43.856Z,75.80
2023-07-19T03:01:10.800Z,76.30
2023-07-19T03:03:37.868Z,75.60
2023-07-19T03:06:04.971Z,75.80
2023-07-19T03:08:31.983Z,75.90
2023-07-19T03:10:59.024Z,76.10
2023-07-19T03:13:25.964Z,75.70
2023-07-19T03:15:53.053Z,75.00
2023-07-19T03:18:20.412Z,76.30
2023-07-19T03:20:47.396Z,75.80
2023-07-19T03:23:14.372Z,76.20
2023-07-19T03:25:41.397Z,76.60
2023-07-19T03:28:08.378Z,76.80
2023-07-19T03:30:35.271Z,75.80
2023-07-19T03:33:02.769Z,76.20
2023-07-19T03:35:29.897Z,76.30
2023-07-19T03:37:56.952Z,76.80
2023-07-19T03:40:23.890Z,76.60
2023-07-19T03:42:50.739Z,76.30
2023-07-19T03:45:17.833Z,76.20
2023-07-19T03:47:45.687Z,76.20
2023-07-19T03:50:12.742Z,76.40
2023-07-19T03:52:39.911Z,76.60
2023-07-19T03:55:08.065Z,76.70
2023-07-19T03:57:37.495Z,76.80
2023-07-19T04:00:05.263Z,76.60
2023-07-19T04:02:44.005Z,76.30
2023-07-19T04:05:11.602Z,76.60
2023-07-19T04:07:38.658Z,76.50
2023-07-19T04:10:05.996Z,76.40
2023-07-19T04:12:32.896Z,76.50
2023-07-19T04:14:59.815Z,76.80
2023-07-19T04:17:28.457Z,76.60
2023-07-19T04:19:55.486Z,76.80
2023-07-19T04:22:22.449Z,77.30
2023-07-19T04:24:49.271Z,77.20
2023-07-19T04:27:17.002Z,77.60
2023-07-19T04:29:43.789Z,77.60
2023-07-19T04:32:10.685Z,77.60
2023-07-19T04:34:37.424Z,77.60
2023-07-19T04:37:04.491Z,77.50
2023-07-19T04:39:31.296Z,77.50
2023-07-19T04:41:59.296Z,77.40
2023-07-19T04:44:26.221Z,77.90
2023-07-19T04:46:53.131Z,77.70
2023-07-19T04:49:19.937Z,77.50
2023-07-19T04:51:46.786Z,77.80
2023-07-19T04:54:13.573Z,78.10
2023-07-19T04:56:40.521Z,78.30
2023-07-19T04:59:07.364Z,78.30
2023-07-19T05:01:34.316Z,78.50
2023-07-19T05:04:01.131Z,78.90
2023-07-19T05:06:27.940Z,78.70
2023-07-19T05:08:54.776Z,78.50
2023-07-19T05:11:26.236Z,78.10
2023-07-19T05:13:53.120Z,78.20
2023-07-19T05:16:20.336Z,78.40
2023-07-19T05:18:47.674Z,78.80
2023-07-19T05:21:15.609Z,78.80
2023-07-19T05:23:42.703Z,79.30
2023-07-19T05:26:09.583Z,79.10
2023-07-19T05:28:36.685Z,78.90
2023-07-19T05:31:04.392Z,79.20
2023-07-19T05:33:33.433Z,79.20
2023-07-19T05:36:01.506Z,79.00
2023-07-19T05:38:29.063Z,79.30
2023-07-19T05:41:02.721Z,78.80
2023-07-19T05:43:33.128Z,78.90
2023-07-19T05:46:19.858Z,79.20
2023-07-19T05:48:46.715Z,78.90
2023-07-19T05:51:13.750Z,79.60
2023-07-19T05:53:40.618Z,79.20
2023-07-19T05:56:07.487Z,79.30
2023-07-19T05:58:34.290Z,79.10
2023-07-19T06:01:01.134Z,78.90
2023-07-19T06:03:28.239Z,78.70
2023-07-19T06:05:55.223Z,79.00
2023-07-19T06:08:25.258Z,79.00
2023-07-19T06:10:53.365Z,79.40
2023-07-19T06:13:20.356Z,79.70
2023-07-19T06:15:47.312Z,79.90
2023-07-19T06:18:14.509Z,80.20
2023-07-19T06:20:41.407Z,80.10
2023-07-19T06:23:08.279Z,79.60
2023-07-19T06:25:35.117Z,79.80
2023-07-19T06:28:01.911Z,79.80
2023-07-19T06:30:28.845Z,80.00
2023-07-19T06:32:55.744Z,80.20
2023-07-19T06:35:22.623Z,80.10
2023-07-19T06:37:49.550Z,80.80
2023-07-19T06:40:16.568Z,80.20
2023-07-19T06:42:44.050Z,80.40
2023-07-19T06:45:11.198Z,80.20
2023-07-19T06:47:38.091Z,80.10
2023-07-19T06:50:05.291Z,80.20
2023-07-19T06:52:32.059Z,80.20
2023-07-19T06:54:58.858Z,79.90
2023-07-19T06:57:25.641Z,80.40
2023-07-19T06:59:53.593Z,79.80
2023-07-19T07:02:20.415Z,79.90
2023-07-19T07:04:47.643Z,80.50
2023-07-19T07:07:16.282Z,79.40
2023-07-19T07:09:43.672Z,79.60
2023-07-19T07:12:11.808Z,79.60
2023-07-19T07:14:39.022Z,79.80
2023-07-19T07:17:09.472Z,79.60
2023-07-19T07:19:36.387Z,79.30
2023-07-19T07:22:03.289Z,79.50
2023-07-19T07:24:30.156Z,79.60
2023-07-19T07:26:56.985Z,79.70
2023-07-19T07:29:23.830Z,79.90
2023-07-19T07:31:50.582Z,80.00
2023-07-19T07:34:17.415Z,80.20
2023-07-19T07:36:45.261Z,79.70
2023-07-19T07:39:12.546Z,79.40
2023-07-19T07:41:39.389Z,79.50
2023-07-19T07:44:06.215Z,79.40
2023-07-19T07:46:33.091Z,79.50
2023-07-19T07:49:01.109Z,79.80
2023-07-19T07:51:28.639Z,79.60
2023-07-19T07:53:55.599Z,79.70
2023-07-19T07:56:24.123Z,79.30
2023-07-19T07:58:51.061Z,79.50
2023-07-19T08:01:17.935Z,79.70
2023-07-19T08:03:44.940Z,79.80
2023-07-19T08:06:11.813Z,79.30
2023-07-19T08:08:38.597Z,79.30
2023-07-19T08:11:10.265Z,79.50
2023-07-19T08:13:37.148Z,79.00
2023-07-19T08:16:07.448Z,78.70
2023-07-19T08:18:37.528Z,78.40
2023-07-19T08:21:05.584Z,78.20
2023-07-19T08:23:32.330Z,78.70
2023-07-19T08:25:59.339Z,78.60
2023-07-19T08:28:26.381Z,78.00
2023-07-19T08:30:53.848Z,77.70
2023-07-19T08:33:21.809Z,77.90
2023-07-19T08:35:48.801Z,77.30
2023-07-19T08:38:15.689Z,77.00
2023-07-19T08:40:45.212Z,76.70
2023-07-19T08:43:14.221Z,77.10
2023-07-19T08:45:41.250Z,77.20
2023-07-19T08:48:08.390Z,77.30
2023-07-19T08:50:37.152Z,77.40
2023-07-19T08:53:03.987Z,77.20
2023-07-19T08:55:32.364Z,77.20
2023-07-19T08:58:00.401Z,77.10
2023-07-19T09:00:29.555Z,76.50
2023-07-19T09:02:56.465Z,76.00
2023-07-19T09:05:27.955Z,75.90
2023-07-19T09:07:54.796Z,76.30
2023-07-19T09:10:21.626Z,75.80
2023-07-19T09:12:48.533Z,75.90
2023-07-19T09:15:15.421Z,75.50
2023-07-19T09:17:43.016Z,75.00
2023-07-19T09:20:10.166Z,74.50
2023-07-19T09:22:37.990Z,73.60
2023-07-19T09:25:06.519Z,73.40
2023-07-19T09:27:33.524Z,73.90
2023-07-19T09:30:00.836Z,73.50
2023-07-19T09:32:27.984Z,73.30
2023-07-19T09:34:58.363Z,72.90
2023-07-19T09:37:26.215Z,73.00
2023-07-19T09:39:53.842Z,73.20
2023-07-19T09:42:20.644Z,72.90
2023-07-19T09:44:47.838Z,72.70
2023-07-19T09:47:28.511Z,71.80
2023-07-19T09:49:56.925Z,71.50
2023-07-19T09:52:26.278Z,71.20
2023-07-19T09:54:53.967Z,71.20
2023-07-19T09:57:22.555Z,71.80
2023-07-19T09:59:51.078Z,72.20
2023-07-19T10:02:18.016Z,72.40
2023-07-19T10:04:44.881Z,71.60
2023-07-19T10:07:12.894Z,71.80
2023-07-19T10:09:41.299Z,72.20
2023-07-19T10:12:08.168Z,72.10
2023-07-19T10:14:35.992Z,71.60
2023-07-19T10:17:04.639Z,71.40
2023-07-19T10:19:33.479Z,71.40
2023-07-19T10:22:09.455Z,70.90
2023-07-19T10:24:36.809Z,71.80
2023-07-19T10:27:04.090Z,71.30
2023-07-19T10:29:40.569Z,71.30
2023-07-19T10:32:08.380Z,70.80
2023-07-19T10:34:44.334Z,70.70
2023-07-19T10:37:12.151Z,70.60
2023-07-19T10:39:39.014Z,69.70
2023-07-19T10:42:07.369Z,69.60
2023-07-19T10:44:34.248Z,69.80
2023-07-19T10:47:01.225Z,69.50
2023-07-19T10:49:28.452Z,69.80
2023-07-19T10:51:55.784Z,69.90
2023-07-19T10:54:23.409Z,70.30
2023-07-19T10:56:50.761Z,70.50
2023-07-19T10:59:17.846Z,70.50
2023-07-19T11:01:45.277Z,69.40
2023-07-19T11:04:12.707Z,69.40
2023-07-19T11:06:52.895Z,69.40
2023-07-19T11:09:19.776Z,68.90
2023-07-19T11:11:46.706Z,68.90
2023-07-19T11:14:32.789Z,68.70
2023-07-19T11:17:00.232Z,68.50
2023-07-19T11:19:37.569Z,68.10
2023-07-19T11:22:05.103Z,67.70
2023-07-19T11:24:39.610Z,68.20
2023-07-19T11:27:07.628Z,68.70
2023-07-19T11:29:34.732Z,68.60
2023-07-19T11:32:18.013Z,69.30
2023-07-19T11:34:45.980Z,69.70
2023-07-19T11:37:19.216Z,70.00
2023-07-19T11:39:47.540Z,68.70
2023-07-19T11:42:14.881Z,68.70
2023-07-19T11:44:45.153Z,68.10
2023-07-19T11:47:12.370Z,68.00
2023-07-19T11:49:39.381Z,67.90
2023-07-19T11:52:06.595Z,67.90
2023-07-19T11:54:33.385Z,67.60
2023-07-19T11:57:00.266Z,67.40
2023-07-19T11:59:27.102Z,67.40
2023-07-19T12:01:55.587Z,67.60
2023-07-19T12:04:22.461Z,67.80
2023-07-19T12:06:49.555Z,67.30
2023-07-19T12:09:16.421Z,67.00
2023-07-19T12:11:43.750Z,66.30
2023-07-19T12:14:10.503Z,65.30
2023-07-19T12:16:37.360Z,65.70
2023-07-19T12:19:04.166Z,67.40
2023-07-19T12:21:31.108Z,68.60
2023-07-19T12:23:59.240Z,70.20
2023-07-19T12:28:56.816Z,65.70
2023-07-19T12:31:24.195Z,63.90
2023-07-19T12:33:51.146Z,67.60
2023-07-19T12:36:18.522Z,70.00
2023-07-19T12:38:46.460Z,67.60
2023-07-19T12:41:13.318Z,68.80
2023-07-19T12:43:40.143Z,70.40
2023-07-19T12:46:06.979Z,72.20
2023-07-19T12:48:34.018Z,72.90
2023-07-19T12:51:00.836Z,74.60
2023-07-19T12:53:28.243Z,75.50
2023-07-19T12:55:55.049Z,76.70
2023-07-19T12:58:22.777Z,77.70
2023-07-19T13:00:49.683Z,79.10
2023-07-19T13:03:16.586Z,79.20
2023-07-19T13:05:43.466Z,81.20
2023-07-19T13:08:11.049Z,81.30
2023-07-19T13:10:37.851Z,83.70
2023-07-19T13:13:04.729Z,84.80
2023-07-19T13:15:31.592Z,84.80
2023-07-19T13:17:58.581Z,84.90
2023-07-19T13:20:25.617Z,84.50
2023-07-19T13:22:52.456Z,82.10
2023-07-19T13:25:19.364Z,82.30
2023-07-19T13:27:47.503Z,82.00
2023-07-19T13:30:14.432Z,84.40
2023-07-19T13:32:41.594Z,84.70
2023-07-19T13:40:10.306Z,84.90
2023-07-19T13:42:39.255Z,84.60
2023-07-19T13:45:06.490Z,86.00
2023-07-19T13:47:33.555Z,85.50
2023-07-19T13:50:00.410Z,85.20
2023-07-19T13:52:27.865Z,85.30
2023-07-19T13:54:54.730Z,84.30
2023-07-19T13:57:21.661Z,84.00
2023-07-19T13:59:48.417Z,83.30
2023-07-19T14:04:42.633Z,81.80
2023-07-19T14:07:09.495Z,81.60
2023-07-19T14:09:36.366Z,81.80
2023-07-19T14:12:04.358Z,82.70
2023-07-19T14:14:45.018Z,83.20
2023-07-19T14:17:12.493Z,81.70
2023-07-19T14:19:39.832Z,81.20
2023-07-19T14:22:07.077Z,79.40
2023-07-19T14:24:33.924Z,80.50
2023-07-19T14:27:00.722Z,81.10
2023-07-19T14:29:27.506Z,81.20
2023-07-19T14:31:55.687Z,80.50
2023-07-19T14:34:25.731Z,78.70
2023-07-19T14:36:53.047Z,78.30
2023-07-19T14:39:21.425Z,78.20
2023-07-19T14:41:54.843Z,76.10
2023-07-19T14:44:23.756Z,75.40
2023-07-19T14:46:50.838Z,75.30
2023-07-19T14:49:18.203Z,75.10
2023-07-19T14:51:45.022Z,74.80
2023-07-19T14:54:11.957Z,73.40
2023-07-19T14:56:38.711Z,73.30
2023-07-19T14:59:05.676Z,73.10
2023-07-19T15:01:42.482Z,72.40
2023-07-19T15:04:09.750Z,71.30
2023-07-19T15:06:41.592Z,68.30
2023-07-19T15:09:08.659Z,68.40
2023-07-19T15:11:38.668Z,67.60
2023-07-19T15:14:05.849Z,65.90
2023-07-19T15:16:32.779Z,64.70
2023-07-19T15:19:00.093Z,66.20
2023-07-19T15:21:27.814Z,66.40
2023-07-19T15:23:54.801Z,66.10
2023-07-19T15:26:33.375Z,63.00
2023-07-19T15:29:01.203Z,63.70
2023-07-19T15:31:28.375Z,62.00
2023-07-19T15:33:55.285Z,61.80
2023-07-19T15:36:23.997Z,63.60
2023-07-19T15:38:55.694Z,62.30
2023-07-19T15:41:23.995Z,61.60
2023-07-19T15:43:51.168Z,61.60
2023-07-19T15:46:18.044Z,62.50
2023-07-19T15:48:44.873Z,59.10
2023-07-19T15:51:11.953Z,60.10
2023-07-19T15:53:38.958Z,60.90
2023-07-19T15:56:09.602Z,61.40
2023-07-19T15:58:36.835Z,62.10
2023-07-19T16:01:07.103Z,60.70
2023-07-19T16:03:34.783Z,59.60
2023-07-19T16:06:01.962Z,57.70
2023-07-19T16:08:28.802Z,58.10
2023-07-19T16:10:58.680Z,58.80
2023-07-19T16:13:25.561Z,58.80
2023-07-19T16:15:52.654Z,61.40
2023-07-19T16:18:19.517Z,61.90
2023-07-19T16:20:49.995Z,62.00
2023-07-19T16:23:16.976Z,62.70
2023-07-19T16:25:46.209Z,62.90
2023-07-19T16:28:13.152Z,62.60
2023-07-19T16:30:40.241Z,62.80
2023-07-19T16:33:07.128Z,62.80
2023-07-19T16:35:34.013Z,63.60
2023-07-19T16:38:00.930Z,64.00
2023-07-19T16:40:30.840Z,64.50
2023-07-19T16:42:58.023Z,64.30
2023-07-19T16:45:25.449Z,64.40
2023-07-19T16:47:58.013Z,64.60
2023-07-19T16:50:28.211Z,64.70
2023-07-19T16:53:03.829Z,63.90
2023-07-19T16:55:31.025Z,65.50
2023-07-19T16:58:00.005Z,65.50
2023-07-19T17:00:26.965Z,63.20
2023-07-19T17:02:53.941Z,63.60
2023-07-19T17:05:20.857Z,64.60
2023-07-19T17:07:48.020Z,66.60
2023-07-19T17:10:15.189Z,67.90
2023-07-19T17:12:42.213Z,68.80
2023-07-19T17:15:09.348Z,69.20
2023-07-19T17:17:36.212Z,69.60
2023-07-19T17:20:03.998Z,69.10
2023-07-19T17:22:30.819Z,69.60
2023-07-19T17:24:58.912Z,69.00
2023-07-19T17:27:27.174Z,69.20
2023-07-19T17:29:53.984Z,70.00
2023-07-19T17:32:21.022Z,71.10
2023-07-19T17:34:48.740Z,70.70
2023-07-19T17:37:15.698Z,70.60
2023-07-19T17:39:42.574Z,69.90
2023-07-19T17:42:09.425Z,70.20
2023-07-19T17:44:36.555Z,71.20
2023-07-19T17:47:03.695Z,70.50
2023-07-19T17:49:31.772Z,70.30
2023-07-19T17:51:58.541Z,70.50
2023-07-19T17:54:25.399Z,70.90
2023-07-19T17:56:52.438Z,70.90
2023-07-19T17:59:19.261Z,70.90
2023-07-19T18:01:46.338Z,71.40
2023-07-19T18:04:13.367Z,72.00
2023-07-19T18:06:40.414Z,72.70
2023-07-19T18:09:07.276Z,73.30
2023-07-19T18:11:34.104Z,75.20
2023-07-19T18:14:01.009Z,75.90
2023-07-19T18:16:27.913Z,77.20
2023-07-19T18:18:54.887Z,77.80
2023-07-19T18:21:21.829Z,77.90
2023-07-19T18:23:48.803Z,77.50
2023-07-19T18:26:15.595Z,78.10
2023-07-19T18:28:42.451Z,79.60
2023-07-19T18:31:09.383Z,80.40
2023-07-19T18:33:36.237Z,80.50
2023-07-19T18:36:03.131Z,80.60
2023-07-19T18:38:30.045Z,81.00
2023-07-19T18:40:57.092Z,80.90
2023-07-19T18:43:24.127Z,81.20
2023-07-19T18:45:51.171Z,81.10
2023-07-19T18:48:18.467Z,82.50
2023-07-19T18:50:45.329Z,81.80
2023-07-19T18:53:12.161Z,82.30
2023-07-19T18:55:39.160Z,81.60
2023-07-19T18:58:06.076Z,81.20
2023-07-19T19:00:32.994Z,80.80
2023-07-19T19:02:59.888Z,79.90
2023-07-19T19:05:26.757Z,79.90
2023-07-19T19:07:55.856Z,80.80
2023-07-19T19:10:22.682Z,80.90
2023-07-19T19:12:49.879Z,80.50
2023-07-19T19:15:17.120Z,81.10
2023-07-19T19:17:44.039Z,82.20
2023-07-19T19:20:10.980Z,82.20
2023-07-19T19:22:38.332Z,82.30
2023-07-19T19:25:06.344Z,82.70
2023-07-19T19:27:35.642Z,82.60
2023-07-19T19:30:02.683Z,82.00
2023-07-19T19:32:30.117Z,82.60
2023-07-19T19:34:57.579Z,82.50
2023-07-19T19:37:24.554Z,82.10
2023-07-19T19:39:52.682Z,82.40
2023-07-19T19:42:19.456Z,82.20
2023-07-19T19:44:49.175Z,82.30
2023-07-19T19:47:16.117Z,83.10
2023-07-19T19:49:43.338Z,83.10
2023-07-19T19:52:12.150Z,84.00
2023-07-19T19:54:40.854Z,83.90
2023-07-19T19:57:08.909Z,83.60
2023-07-19T19:59:36.128Z,83.00
2023-07-19T20:04:33.532Z,83.10
2023-07-19T20:07:00.523Z,83.90
2023-07-19T20:09:31.085Z,84.40
2023-07-19T20:11:58.813Z,84.90
2023-07-19T20:14:26.399Z,84.80
2023-07-19T20:16:53.898Z,85.20
2023-07-19T20:21:50.810Z,84.90
2023-07-19T20:24:19.390Z,85.30
2023-07-19T20:26:52.771Z,84.90
2023-07-19T20:31:55.915Z,84.90
2023-07-19T20:39:59.775Z,85.00
2023-07-19T20:42:28.892Z,85.00
2023-07-19T20:44:55.869Z,85.70
2023-07-19T20:47:22.978Z,85.50
2023-07-19T20:49:49.912Z,85.70
2023-07-19T20:52:16.934Z,85.90
2023-07-19T20:54:45.990Z,85.20
2023-07-19T20:57:12.896Z,85.40
2023-07-19T20:59:39.957Z,85.60
2023-07-19T21:02:08.509Z,85.60
2023-07-19T21:04:35.583Z,85.60
2023-07-19T21:07:02.567Z,85.60
2023-07-19T21:09:29.447Z,85.70
2023-07-19T21:11:56.484Z,86.00
2023-07-19T21:14:23.607Z,86.30
2023-07-19T21:16:51.083Z,86.70
2023-07-19T21:19:18.112Z,86.30
2023-07-19T21:21:45.143Z,86.80
2023-07-19T21:24:15.044Z,86.60
2023-07-19T21:26:43.428Z,87.10
2023-07-19T21:29:10.331Z,87.00
2023-07-19T21:31:37.483Z,87.50
2023-07-19T21:34:04.703Z,87.80
2023-07-19T21:36:31.643Z,87.40
2023-07-19T21:38:58.513Z,87.30
2023-07-19T21:41:25.537Z,87.00
2023-07-19T21:43:52.480Z,86.90
2023-07-19T21:46:19.345Z,86.80
2023-07-19T21:48:46.558Z,87.00
2023-07-19T21:51:13.353Z,87.60
2023-07-19T21:53:40.314Z,87.60
2023-07-19T21:56:07.171Z,87.70
2023-07-19T21:58:34.116Z,87.40
2023-07-19T22:01:01.025Z,87.50
2023-07-19T22:03:28.030Z,88.40
2023-07-19T22:05:54.845Z,88.80
2023-07-19T22:08:24.182Z,88.40
2023-07-19T22:10:51.268Z,88.10
2023-07-19T22:13:18.135Z,88.20
2023-07-19T22:15:44.988Z,88.20
2023-07-19T22:18:11.873Z,87.90
2023-07-19T22:20:38.784Z,88.00
2023-07-19T22:23:05.707Z,88.10
2023-07-19T22:25:32.725Z,88.00
2023-07-19T22:27:59.676Z,88.10
2023-07-19T22:30:27.273Z,88.60
2023-07-19T22:32:54.305Z,89.20
2023-07-19T22:35:21.366Z,89.50
2023-07-19T22:37:48.247Z,89.50
2023-07-19T22:40:15.429Z,89.60
2023-07-19T22:42:42.336Z,90.20
2023-07-19T22:45:09.514Z,90.10
2023-07-19T22:47:36.327Z,90.30
2023-07-19T22:50:03.580Z,90.30
2023-07-19T22:52:30.802Z,90.20
2023-07-19T22:54:57.801Z,90.20
2023-07-19T22:57:24.691Z,90.20
2023-07-19T22:59:51.623Z,90.30
2023-07-19T23:02:18.534Z,90.00
2023-07-19T23:04:45.777Z,89.90
2023-07-19T23:07:12.594Z,90.00
2023-07-19T23:09:39.527Z,90.30
2023-07-19T23:12:06.762Z,90.50
2023-07-19T23:14:33.592Z,90.30
2023-07-19T23:17:00.563Z,90.10
2023-07-19T23:19:29.432Z,90.00
2023-07-19T23:21:58.167Z,89.90
2023-07-19T23:24:26.486Z,90.00
2023-07-19T23:26:53.276Z,90.30
2023-07-19T23:29:26.065Z,90.20
2023-07-19T23:31:53.333Z,90.20
2023-07-19T23:34:20.261Z,90.20
2023-07-19T23:36:47.177Z,90.30
2023-07-19T23:39:14.238Z,90.30
2023-07-19T23:41:41.301Z,90.10
2023-07-19T23:44:08.287Z,90.40
2023-07-19T23:46:35.412Z,90.70
2023-07-19T23:49:02.361Z,90.60
2023-07-19T23:51:29.552Z,90.50
2023-07-19T23:53:56.451Z,90.40
2023-07-19T23:56:23.688Z,90.50
2023-07-19T23:58:50.768Z,90.80
